sensor_id;sensor_type;location;lat;lon;timestamp;pressure;altitude;pressure_sealevel;temperature;humidity
38612;BME280;24368;52.156;20.788;2023-12-14T00:03:15;99386.77;;;2.61;100.00
38612;BME280;24368;52.156;20.788;2023-12-14T00:08:17;99388.22;;;2.60;100.00
38612;BME280;24368;52.156;20.788;2023-12-14T00:13:19;99391.77;;;2.62;100.00
38612;BME280;24368;52.156;20.788;2023-12-14T00:18:20;99395.77;;;2.57;100.00
38612;BME280;24368;52.156;20.788;2023-12-14T00:23:23;99401.14;;;2.56;100.00
38612;BME280;24368;52.156;20.788;2023-12-14T00:28:25;99396.09;;;2.56;100.00
38612;BME280;24368;52.156;20.788;2023-12-14T00:33:27;99406.80;;;2.53;100.00
38612;BME280;24368;52.156;20.788;2023-12-14T00:38:29;99408.14;;;2.49;100.00
38612;BME280;24368;52.156;20.788;2023-12-14T00:43:30;99411.29;;;2.51;100.00
38612;BME280;24368;52.156;20.788;2023-12-14T00:48:32;99417.22;;;2.51;100.00
38612;BME280;24368;52.156;20.788;2023-12-14T00:53:34;99425.48;;;2.45;100.00
38612;BME280;24368;52.156;20.788;2023-12-14T00:58:36;99432.50;;;2.42;100.00
38612;BME280;24368;52.156;20.788;2023-12-14T01:03:38;99435.74;;;2.43;100.00
38612;BME280;24368;52.156;20.788;2023-12-14T01:08:39;99436.05;;;2.43;100.00
38612;BME280;24368;52.156;20.788;2023-12-14T01:13:41;99436.77;;;2.41;100.00
38612;BME280;24368;52.156;20.788;2023-12-14T01:18:43;99439.36;;;2.41;100.00
38612;BME280;24368;52.156;20.788;2023-12-14T01:23:45;99444.56;;;2.41;100.00
38612;BME280;24368;52.156;20.788;2023-12-14T01:28:46;99441.40;;;2.40;100.00
38612;BME280;24368;52.156;20.788;2023-12-14T01:33:49;99435.97;;;2.38;100.00
38612;BME280;24368;52.156;20.788;2023-12-14T01:38:52;99439.36;;;2.35;100.00
38612;BME280;24368;52.156;20.788;2023-12-14T01:43:54;99443.23;;;2.35;100.00
38612;BME280;24368;52.156;20.788;2023-12-14T01:48:55;99447.55;;;2.37;100.00
38612;BME280;24368;52.156;20.788;2023-12-14T01:53:57;99449.38;;;2.34;100.00
38612;BME280;24368;52.156;20.788;2023-12-14T01:58:59;99449.33;;;2.34;100.00
38612;BME280;24368;52.156;20.788;2023-12-14T02:04:01;99442.17;;;2.32;100.00
38612;BME280;24368;52.156;20.788;2023-12-14T02:09:03;99441.63;;;2.31;100.00
38612;BME280;24368;52.156;20.788;2023-12-14T02:14:06;99442.67;;;2.33;100.00
38612;BME280;24368;52.156;20.788;2023-12-14T02:19:10;99439.92;;;2.34;100.00
38612;BME280;24368;52.156;20.788;2023-12-14T02:24:11;99440.42;;;2.35;100.00
38612;BME280;24368;52.156;20.788;2023-12-14T02:29:13;99435.61;;;2.32;100.00
38612;BME280;24368;52.156;20.788;2023-12-14T02:34:15;99439.98;;;2.29;100.00
38612;BME280;24368;52.156;20.788;2023-12-14T02:39:17;99437.41;;;2.29;100.00
38612;BME280;24368;52.156;20.788;2023-12-14T02:44:19;99436.30;;;2.30;100.00
38612;BME280;24368;52.156;20.788;2023-12-14T02:49:21;99432.05;;;2.35;100.00
38612;BME280;24368;52.156;20.788;2023-12-14T02:54:23;99434.61;;;2.36;100.00
38612;BME280;24368;52.156;20.788;2023-12-14T02:59:25;99434.50;;;2.35;100.00
38612;BME280;24368;52.156;20.788;2023-12-14T03:04:26;99434.06;;;2.36;100.00
38612;BME280;24368;52.156;20.788;2023-12-14T03:09:28;99437.49;;;2.36;100.00
38612;BME280;24368;52.156;20.788;2023-12-14T03:14:32;99445.90;;;2.36;100.00
38612;BME280;24368;52.156;20.788;2023-12-14T03:19:35;99453.92;;;2.35;100.00
38612;BME280;24368;52.156;20.788;2023-12-14T03:24:37;99464.81;;;2.38;100.00
38612;BME280;24368;52.156;20.788;2023-12-14T03:29:39;99472.38;;;2.37;100.00
38612;BME280;24368;52.156;20.788;2023-12-14T03:34:41;99476.36;;;2.35;100.00
38612;BME280;24368;52.156;20.788;2023-12-14T03:39:42;99475.86;;;2.33;100.00
38612;BME280;24368;52.156;20.788;2023-12-14T03:44:44;99479.95;;;2.34;100.00
38612;BME280;24368;52.156;20.788;2023-12-14T03:49:46;99485.84;;;2.32;100.00
38612;BME280;24368;52.156;20.788;2023-12-14T03:54:48;99487.92;;;2.32;100.00
38612;BME280;24368;52.156;20.788;2023-12-14T03:59:49;99486.84;;;2.32;100.00
38612;BME280;24368;52.156;20.788;2023-12-14T04:04:51;99490.67;;;2.32;100.00
38612;BME280;24368;52.156;20.788;2023-12-14T04:09:53;99488.27;;;2.28;100.00
38612;BME280;24368;52.156;20.788;2023-12-14T04:14:55;99491.54;;;2.24;100.00
38612;BME280;24368;52.156;20.788;2023-12-14T04:19:57;99499.48;;;2.27;100.00
38612;BME280;24368;52.156;20.788;2023-12-14T04:24:59;99503.98;;;2.27;100.00
38612;BME280;24368;52.156;20.788;2023-12-14T04:30:00;99512.13;;;2.23;100.00
38612;BME280;24368;52.156;20.788;2023-12-14T04:35:03;99514.07;;;2.22;100.00
38612;BME280;24368;52.156;20.788;2023-12-14T04:40:06;99513.98;;;2.16;100.00
38612;BME280;24368;52.156;20.788;2023-12-14T04:45:08;99519.88;;;2.17;100.00
38612;BME280;24368;52.156;20.788;2023-12-14T04:50:14;99526.11;;;2.17;100.00
38612;BME280;24368;52.156;20.788;2023-12-14T04:55:16;99532.09;;;2.18;100.00
38612;BME280;24368;52.156;20.788;2023-12-14T05:00:18;99543.15;;;2.17;100.00
38612;BME280;24368;52.156;20.788;2023-12-14T05:05:19;99551.50;;;2.19;100.00
38612;BME280;24368;52.156;20.788;2023-12-14T05:10:21;99559.68;;;2.21;100.00
38612;BME280;24368;52.156;20.788;2023-12-14T05:15:23;99570.70;;;2.23;100.00
38612;BME280;24368;52.156;20.788;2023-12-14T05:20:24;99577.23;;;2.19;100.00
38612;BME280;24368;52.156;20.788;2023-12-14T05:25:26;99585.00;;;2.15;100.00
38612;BME280;24368;52.156;20.788;2023-12-14T05:30:29;99595.27;;;2.10;100.00
38612;BME280;24368;52.156;20.788;2023-12-14T05:35:31;99597.25;;;2.12;100.00
38612;BME280;24368;52.156;20.788;2023-12-14T05:40:33;99602.08;;;2.12;100.00
38612;BME280;24368;52.156;20.788;2023-12-14T05:45:35;99608.91;;;2.16;100.00
38612;BME280;24368;52.156;20.788;2023-12-14T05:50:36;99617.23;;;2.16;100.00
38612;BME280;24368;52.156;20.788;2023-12-14T05:55:38;99627.65;;;2.16;100.00
38612;BME280;24368;52.156;20.788;2023-12-14T06:00:41;99635.57;;;2.10;100.00
38612;BME280;24368;52.156;20.788;2023-12-14T06:05:43;99641.60;;;2.11;100.00
38612;BME280;24368;52.156;20.788;2023-12-14T06:10:45;99646.02;;;2.12;100.00
38612;BME280;24368;52.156;20.788;2023-12-14T06:15:47;99653.51;;;2.12;100.00
38612;BME280;24368;52.156;20.788;2023-12-14T06:20:48;99659.95;;;2.10;100.00
38612;BME280;24368;52.156;20.788;2023-12-14T06:25:50;99661.61;;;2.09;100.00
38612;BME280;24368;52.156;20.788;2023-12-14T06:30:52;99662.75;;;2.07;100.00
38612;BME280;24368;52.156;20.788;2023-12-14T06:35:54;99666.13;;;2.06;100.00
38612;BME280;24368;52.156;20.788;2023-12-14T06:40:56;99672.50;;;2.05;100.00
38612;BME280;24368;52.156;20.788;2023-12-14T06:45:57;99682.98;;;2.06;100.00
38612;BME280;24368;52.156;20.788;2023-12-14T06:50:59;99688.26;;;2.06;100.00
38612;BME280;24368;52.156;20.788;2023-12-14T06:56:01;99692.98;;;2.07;100.00
38612;BME280;24368;52.156;20.788;2023-12-14T07:01:03;99696.05;;;2.08;100.00
38612;BME280;24368;52.156;20.788;2023-12-14T07:06:05;99699.59;;;2.07;100.00
38612;BME280;24368;52.156;20.788;2023-12-14T07:11:08;99707.05;;;2.10;100.00
38612;BME280;24368;52.156;20.788;2023-12-14T07:16:10;99717.33;;;2.07;100.00
38612;BME280;24368;52.156;20.788;2023-12-14T07:21:13;99714.02;;;2.00;100.00
38612;BME280;24368;52.156;20.788;2023-12-14T07:26:14;99712.48;;;1.95;100.00
38612;BME280;24368;52.156;20.788;2023-12-14T07:31:16;99716.47;;;2.00;100.00
38612;BME280;24368;52.156;20.788;2023-12-14T07:36:18;99722.57;;;2.02;100.00
38612;BME280;24368;52.156;20.788;2023-12-14T07:41:20;99728.89;;;2.04;100.00
38612;BME280;24368;52.156;20.788;2023-12-14T07:46:24;99727.23;;;2.05;100.00
38612;BME280;24368;52.156;20.788;2023-12-14T07:51:26;99726.31;;;2.06;100.00
38612;BME280;24368;52.156;20.788;2023-12-14T07:56:29;99735.12;;;2.06;100.00
38612;BME280;24368;52.156;20.788;2023-12-14T08:01:30;99739.03;;;2.05;100.00
38612;BME280;24368;52.156;20.788;2023-12-14T08:06:32;99754.39;;;2.04;100.00
38612;BME280;24368;52.156;20.788;2023-12-14T08:11:34;99762.88;;;2.07;100.00
38612;BME280;24368;52.156;20.788;2023-12-14T08:16:36;99770.77;;;2.06;100.00
38612;BME280;24368;52.156;20.788;2023-12-14T08:21:38;99780.69;;;2.03;100.00
38612;BME280;24368;52.156;20.788;2023-12-14T08:26:40;99785.16;;;2.04;100.00
38612;BME280;24368;52.156;20.788;2023-12-14T08:31:42;99789.53;;;2.04;100.00
38612;BME280;24368;52.156;20.788;2023-12-14T08:36:43;99804.58;;;2.02;100.00
38612;BME280;24368;52.156;20.788;2023-12-14T08:41:46;99813.52;;;2.01;100.00
38612;BME280;24368;52.156;20.788;2023-12-14T08:46:48;99820.81;;;2.01;100.00
38612;BME280;24368;52.156;20.788;2023-12-14T08:51:51;99827.44;;;1.99;100.00
38612;BME280;24368;52.156;20.788;2023-12-14T08:56:53;99833.03;;;2.07;100.00
38612;BME280;24368;52.156;20.788;2023-12-14T09:01:54;99835.84;;;2.09;100.00
38612;BME280;24368;52.156;20.788;2023-12-14T09:06:56;99842.52;;;2.08;100.00
38612;BME280;24368;52.156;20.788;2023-12-14T09:11:58;99847.86;;;2.09;100.00
38612;BME280;24368;52.156;20.788;2023-12-14T09:17:00;99857.20;;;2.07;100.00
38612;BME280;24368;52.156;20.788;2023-12-14T09:22:01;99862.86;;;2.08;100.00
38612;BME280;24368;52.156;20.788;2023-12-14T09:27:03;99862.29;;;2.07;100.00
38612;BME280;24368;52.156;20.788;2023-12-14T09:32:07;99874.63;;;2.04;100.00
38612;BME280;24368;52.156;20.788;2023-12-14T09:37:10;99876.20;;;1.94;100.00
38612;BME280;24368;52.156;20.788;2023-12-14T09:42:17;99883.89;;;1.89;100.00
38612;BME280;24368;52.156;20.788;2023-12-14T09:47:20;99886.97;;;1.92;100.00
38612;BME280;24368;52.156;20.788;2023-12-14T09:52:22;99882.46;;;2.02;100.00
38612;BME280;24368;52.156;20.788;2023-12-14T09:57:24;99884.98;;;2.03;100.00
38612;BME280;24368;52.156;20.788;2023-12-14T10:02:27;99889.14;;;2.10;100.00
38612;BME280;24368;52.156;20.788;2023-12-14T10:07:30;99884.04;;;2.18;100.00
38612;BME280;24368;52.156;20.788;2023-12-14T10:12:50;99884.33;;;2.11;100.00
38612;BME280;24368;52.156;20.788;2023-12-14T10:17:53;99883.54;;;2.10;100.00
38612;BME280;24368;52.156;20.788;2023-12-14T10:22:56;99884.13;;;2.14;100.00
38612;BME280;24368;52.156;20.788;2023-12-14T10:27:57;99895.69;;;2.13;100.00
38612;BME280;24368;52.156;20.788;2023-12-14T10:33:01;99896.80;;;2.10;100.00
38612;BME280;24368;52.156;20.788;2023-12-14T10:38:04;99903.00;;;2.08;100.00
38612;BME280;24368;52.156;20.788;2023-12-14T10:43:06;99912.84;;;2.07;100.00
38612;BME280;24368;52.156;20.788;2023-12-14T10:48:09;99914.41;;;2.06;100.00
38612;BME280;24368;52.156;20.788;2023-12-14T10:53:11;99917.81;;;2.10;100.00
38612;BME280;24368;52.156;20.788;2023-12-14T10:58:13;99921.18;;;2.09;100.00
38612;BME280;24368;52.156;20.788;2023-12-14T11:03:15;99928.48;;;2.09;100.00
38612;BME280;24368;52.156;20.788;2023-12-14T11:08:19;99932.35;;;2.13;100.00
38612;BME280;24368;52.156;20.788;2023-12-14T11:13:22;99941.88;;;2.09;100.00
38612;BME280;24368;52.156;20.788;2023-12-14T11:18:25;99943.53;;;2.12;100.00
38612;BME280;24368;52.156;20.788;2023-12-14T11:23:32;99950.58;;;2.06;100.00
38612;BME280;24368;52.156;20.788;2023-12-14T11:28:37;99950.84;;;2.05;100.00
38612;BME280;24368;52.156;20.788;2023-12-14T11:33:40;99956.88;;;2.03;100.00
38612;BME280;24368;52.156;20.788;2023-12-14T11:38:42;99963.84;;;1.96;100.00
38612;BME280;24368;52.156;20.788;2023-12-14T11:43:45;99965.44;;;1.98;100.00
38612;BME280;24368;52.156;20.788;2023-12-14T11:48:47;99968.80;;;2.04;100.00
38612;BME280;24368;52.156;20.788;2023-12-14T11:53:50;99975.04;;;2.02;100.00
38612;BME280;24368;52.156;20.788;2023-12-14T11:58:52;99982.50;;;2.02;100.00
38612;BME280;24368;52.156;20.788;2023-12-14T12:04:08;99985.99;;;2.00;100.00
38612;BME280;24368;52.156;20.788;2023-12-14T12:09:11;99982.25;;;1.96;100.00
38612;BME280;24368;52.156;20.788;2023-12-14T12:14:14;99988.22;;;2.00;100.00
38612;BME280;24368;52.156;20.788;2023-12-14T12:19:16;99991.10;;;2.03;100.00
38612;BME280;24368;52.156;20.788;2023-12-14T12:24:18;99991.09;;;2.01;100.00
38612;BME280;24368;52.156;20.788;2023-12-14T12:29:20;99993.77;;;2.00;100.00
38612;BME280;24368;52.156;20.788;2023-12-14T12:34:22;100003.84;;;2.08;100.00
38612;BME280;24368;52.156;20.788;2023-12-14T12:39:25;100007.79;;;2.08;100.00
38612;BME280;24368;52.156;20.788;2023-12-14T12:44:27;100020.11;;;2.09;100.00
38612;BME280;24368;52.156;20.788;2023-12-14T12:49:30;100023.75;;;2.13;100.00
38612;BME280;24368;52.156;20.788;2023-12-14T12:54:32;100024.04;;;2.12;100.00
38612;BME280;24368;52.156;20.788;2023-12-14T12:59:34;100022.60;;;2.07;100.00
38612;BME280;24368;52.156;20.788;2023-12-14T13:04:36;100025.79;;;2.09;100.00
38612;BME280;24368;52.156;20.788;2023-12-14T13:09:39;100035.98;;;2.13;100.00
38612;BME280;24368;52.156;20.788;2023-12-14T13:14:41;100040.21;;;2.11;100.00
38612;BME280;24368;52.156;20.788;2023-12-14T13:19:44;100045.88;;;2.05;100.00
38612;BME280;24368;52.156;20.788;2023-12-14T13:24:46;100053.95;;;2.09;100.00
38612;BME280;24368;52.156;20.788;2023-12-14T13:29:47;100058.18;;;2.11;100.00
38612;BME280;24368;52.156;20.788;2023-12-14T13:34:49;100062.13;;;2.12;100.00
38612;BME280;24368;52.156;20.788;2023-12-14T13:39:51;100069.51;;;2.10;100.00
38612;BME280;24368;52.156;20.788;2023-12-14T13:44:54;100072.14;;;2.10;100.00
38612;BME280;24368;52.156;20.788;2023-12-14T13:49:56;100078.91;;;2.10;100.00
38612;BME280;24368;52.156;20.788;2023-12-14T13:54:57;100081.08;;;2.07;100.00
38612;BME280;24368;52.156;20.788;2023-12-14T14:00:00;100089.42;;;2.04;100.00
38612;BME280;24368;52.156;20.788;2023-12-14T14:05:03;100098.11;;;2.02;100.00
38612;BME280;24368;52.156;20.788;2023-12-14T14:10:05;100104.38;;;2.01;100.00
38612;BME280;24368;52.156;20.788;2023-12-14T14:15:08;100115.00;;;2.03;100.00
38612;BME280;24368;52.156;20.788;2023-12-14T14:20:10;100124.51;;;1.97;100.00
38612;BME280;24368;52.156;20.788;2023-12-14T14:25:12;100129.52;;;1.92;100.00
38612;BME280;24368;52.156;20.788;2023-12-14T14:30:14;100136.08;;;1.92;100.00
38612;BME280;24368;52.156;20.788;2023-12-14T14:35:16;100140.36;;;1.93;100.00
38612;BME280;24368;52.156;20.788;2023-12-14T14:40:18;100147.02;;;1.98;100.00
38612;BME280;24368;52.156;20.788;2023-12-14T14:45:20;100151.98;;;2.01;100.00
38612;BME280;24368;52.156;20.788;2023-12-14T14:50:22;100160.55;;;2.01;100.00
38612;BME280;24368;52.156;20.788;2023-12-14T14:55:23;100164.33;;;1.99;100.00
38612;BME280;24368;52.156;20.788;2023-12-14T15:00:27;100168.25;;;2.02;100.00
38612;BME280;24368;52.156;20.788;2023-12-14T15:05:29;100174.94;;;2.04;100.00
38612;BME280;24368;52.156;20.788;2023-12-14T15:10:34;100172.63;;;2.02;100.00
38612;BME280;24368;52.156;20.788;2023-12-14T15:15:36;100186.26;;;1.95;100.00
38612;BME280;24368;52.156;20.788;2023-12-14T15:20:39;100199.20;;;1.92;100.00
38612;BME280;24368;52.156;20.788;2023-12-14T15:25:42;100212.80;;;1.91;100.00
38612;BME280;24368;52.156;20.788;2023-12-14T15:30:44;100217.70;;;1.93;100.00
38612;BME280;24368;52.156;20.788;2023-12-14T15:35:46;100222.20;;;1.93;100.00
38612;BME280;24368;52.156;20.788;2023-12-14T15:40:48;100227.20;;;1.94;100.00
38612;BME280;24368;52.156;20.788;2023-12-14T15:45:49;100234.30;;;1.91;100.00
38612;BME280;24368;52.156;20.788;2023-12-14T15:50:51;100240.19;;;1.92;100.00
38612;BME280;24368;52.156;20.788;2023-12-14T15:55:53;100247.98;;;1.90;100.00
38612;BME280;24368;52.156;20.788;2023-12-14T16:00:55;100258.67;;;1.88;100.00
38612;BME280;24368;52.156;20.788;2023-12-14T16:05:57;100266.48;;;1.89;100.00
38612;BME280;24368;52.156;20.788;2023-12-14T16:10:58;100269.58;;;1.86;100.00
38612;BME280;24368;52.156;20.788;2023-12-14T16:16:00;100278.11;;;1.83;100.00
38612;BME280;24368;52.156;20.788;2023-12-14T16:21:02;100288.89;;;1.83;100.00
38612;BME280;24368;52.156;20.788;2023-12-14T16:26:04;100294.45;;;1.81;100.00
38612;BME280;24368;52.156;20.788;2023-12-14T16:31:07;100298.69;;;1.71;100.00
38612;BME280;24368;52.156;20.788;2023-12-14T16:36:13;100299.45;;;1.67;100.00
38612;BME280;24368;52.156;20.788;2023-12-14T16:41:19;100298.66;;;1.69;100.00
38612;BME280;24368;52.156;20.788;2023-12-14T16:46:22;100309.32;;;1.68;100.00
38612;BME280;24368;52.156;20.788;2023-12-14T16:51:24;100315.23;;;1.70;100.00
38612;BME280;24368;52.156;20.788;2023-12-14T16:56:30;100323.80;;;1.69;100.00
38612;BME280;24368;52.156;20.788;2023-12-14T17:01:33;100323.42;;;1.67;100.00
38612;BME280;24368;52.156;20.788;2023-12-14T17:06:35;100324.11;;;1.67;100.00
38612;BME280;24368;52.156;20.788;2023-12-14T17:11:36;100331.66;;;1.66;100.00
38612;BME280;24368;52.156;20.788;2023-12-14T17:16:38;100334.02;;;1.65;100.00
38612;BME280;24368;52.156;20.788;2023-12-14T17:21:41;100346.23;;;1.64;100.00
38612;BME280;24368;52.156;20.788;2023-12-14T17:26:43;100350.76;;;1.63;100.00
38612;BME280;24368;52.156;20.788;2023-12-14T17:31:44;100358.27;;;1.63;100.00
38612;BME280;24368;52.156;20.788;2023-12-14T17:36:46;100366.51;;;1.59;100.00
38612;BME280;24368;52.156;20.788;2023-12-14T17:41:48;100378.47;;;1.59;100.00
38612;BME280;24368;52.156;20.788;2023-12-14T17:46:50;100383.69;;;1.56;100.00
38612;BME280;24368;52.156;20.788;2023-12-14T17:51:52;100390.98;;;1.56;100.00
38612;BME280;24368;52.156;20.788;2023-12-14T17:56:53;100399.59;;;1.46;100.00
38612;BME280;24368;52.156;20.788;2023-12-14T18:01:55;100404.55;;;1.47;100.00
38612;BME280;24368;52.156;20.788;2023-12-14T18:06:58;100412.83;;;1.48;100.00
38612;BME280;24368;52.156;20.788;2023-12-14T18:12:00;100420.80;;;1.51;100.00
38612;BME280;24368;52.156;20.788;2023-12-14T18:17:02;100422.61;;;1.50;100.00
38612;BME280;24368;52.156;20.788;2023-12-14T18:22:04;100427.73;;;1.52;100.00
38612;BME280;24368;52.156;20.788;2023-12-14T18:27:06;100433.61;;;1.52;100.00
38612;BME280;24368;52.156;20.788;2023-12-14T18:32:08;100440.65;;;1.53;100.00
38612;BME280;24368;52.156;20.788;2023-12-14T18:37:09;100446.70;;;1.54;100.00
38612;BME280;24368;52.156;20.788;2023-12-14T18:42:15;100455.08;;;1.53;100.00
38612;BME280;24368;52.156;20.788;2023-12-14T18:47:17;100459.43;;;1.53;100.00
38612;BME280;24368;52.156;20.788;2023-12-14T18:52:18;100467.00;;;1.51;100.00
38612;BME280;24368;52.156;20.788;2023-12-14T18:57:21;100470.92;;;1.52;100.00
38612;BME280;24368;52.156;20.788;2023-12-14T19:02:23;100479.28;;;1.49;100.00
38612;BME280;24368;52.156;20.788;2023-12-14T19:07:29;100486.06;;;1.49;100.00
38612;BME280;24368;52.156;20.788;2023-12-14T19:12:30;100501.20;;;1.46;100.00
38612;BME280;24368;52.156;20.788;2023-12-14T19:17:32;100510.02;;;1.40;100.00
38612;BME280;24368;52.156;20.788;2023-12-14T19:22:34;100515.04;;;1.38;100.00
38612;BME280;24368;52.156;20.788;2023-12-14T19:27:40;100521.20;;;1.31;100.00
38612;BME280;24368;52.156;20.788;2023-12-14T19:32:42;100534.77;;;1.27;100.00
38612;BME280;24368;52.156;20.788;2023-12-14T19:37:45;100542.30;;;1.23;100.00
38612;BME280;24368;52.156;20.788;2023-12-14T19:42:49;100549.55;;;1.14;100.00
38612;BME280;24368;52.156;20.788;2023-12-14T19:47:51;100563.05;;;1.12;100.00
38612;BME280;24368;52.156;20.788;2023-12-14T19:52:53;100568.98;;;1.06;100.00
38612;BME280;24368;52.156;20.788;2023-12-14T19:57:55;100572.38;;;1.04;100.00
38612;BME280;24368;52.156;20.788;2023-12-14T20:02:56;100577.02;;;0.95;100.00
38612;BME280;24368;52.156;20.788;2023-12-14T20:07:58;100586.49;;;0.94;100.00
38612;BME280;24368;52.156;20.788;2023-12-14T20:13:01;100592.86;;;0.85;100.00
38612;BME280;24368;52.156;20.788;2023-12-14T20:18:04;100596.05;;;0.81;100.00
38612;BME280;24368;52.156;20.788;2023-12-14T20:23:06;100598.98;;;0.85;100.00
38612;BME280;24368;52.156;20.788;2023-12-14T20:28:08;100602.27;;;0.91;100.00
38612;BME280;24368;52.156;20.788;2023-12-14T20:33:10;100606.64;;;0.96;100.00
38612;BME280;24368;52.156;20.788;2023-12-14T20:38:12;100615.34;;;0.99;100.00
38612;BME280;24368;52.156;20.788;2023-12-14T20:43:13;100620.86;;;1.03;100.00
38612;BME280;24368;52.156;20.788;2023-12-14T20:48:15;100626.19;;;1.06;100.00
38612;BME280;24368;52.156;20.788;2023-12-14T20:53:17;100637.29;;;1.09;100.00
38612;BME280;24368;52.156;20.788;2023-12-14T20:58:19;100646.27;;;1.04;100.00
38612;BME280;24368;52.156;20.788;2023-12-14T21:03:21;100656.56;;;0.94;100.00
38612;BME280;24368;52.156;20.788;2023-12-14T21:08:26;100668.16;;;0.88;100.00
38612;BME280;24368;52.156;20.788;2023-12-14T21:13:28;100678.25;;;0.84;100.00
38612;BME280;24368;52.156;20.788;2023-12-14T21:18:29;100683.67;;;0.84;100.00
38612;BME280;24368;52.156;20.788;2023-12-14T21:23:31;100689.41;;;0.83;100.00
38612;BME280;24368;52.156;20.788;2023-12-14T21:28:34;100698.52;;;0.79;100.00
38612;BME280;24368;52.156;20.788;2023-12-14T21:33:36;100708.61;;;0.71;100.00
38612;BME280;24368;52.156;20.788;2023-12-14T21:38:38;100716.70;;;0.72;100.00
38612;BME280;24368;52.156;20.788;2023-12-14T21:43:40;100719.98;;;0.76;100.00
38612;BME280;24368;52.156;20.788;2023-12-14T21:48:42;100730.45;;;0.74;100.00
38612;BME280;24368;52.156;20.788;2023-12-14T21:53:44;100742.79;;;0.71;100.00
38612;BME280;24368;52.156;20.788;2023-12-14T21:58:46;100752.58;;;0.72;100.00
38612;BME280;24368;52.156;20.788;2023-12-14T22:03:47;100760.00;;;0.70;100.00
38612;BME280;24368;52.156;20.788;2023-12-14T22:08:49;100768.99;;;0.67;100.00
38612;BME280;24368;52.156;20.788;2023-12-14T22:13:51;100779.14;;;0.62;100.00
38612;BME280;24368;52.156;20.788;2023-12-14T22:18:53;100783.16;;;0.58;100.00
38612;BME280;24368;52.156;20.788;2023-12-14T22:23:55;100795.55;;;0.57;100.00
38612;BME280;24368;52.156;20.788;2023-12-14T22:28:56;100805.12;;;0.60;100.00
38612;BME280;24368;52.156;20.788;2023-12-14T22:33:58;100815.69;;;0.60;100.00
38612;BME280;24368;52.156;20.788;2023-12-14T22:39:01;100817.53;;;0.58;100.00
38612;BME280;24368;52.156;20.788;2023-12-14T22:44:03;100822.67;;;0.49;100.00
38612;BME280;24368;52.156;20.788;2023-12-14T22:49:04;100833.83;;;0.48;100.00
38612;BME280;24368;52.156;20.788;2023-12-14T22:54:06;100838.25;;;0.49;100.00
38612;BME280;24368;52.156;20.788;2023-12-14T22:59:08;100848.03;;;0.48;100.00
38612;BME280;24368;52.156;20.788;2023-12-14T23:04:10;100849.08;;;0.48;100.00
38612;BME280;24368;52.156;20.788;2023-12-14T23:09:11;100845.76;;;0.45;100.00
38612;BME280;24368;52.156;20.788;2023-12-14T23:14:14;100842.96;;;0.45;100.00
38612;BME280;24368;52.156;20.788;2023-12-14T23:19:17;100866.77;;;0.44;100.00
38612;BME280;24368;52.156;20.788;2023-12-14T23:24:18;100874.02;;;0.45;100.00
38612;BME280;24368;52.156;20.788;2023-12-14T23:29:21;100878.48;;;0.38;100.00
38612;BME280;24368;52.156;20.788;2023-12-14T23:34:23;100884.44;;;0.34;100.00
38612;BME280;24368;52.156;20.788;2023-12-14T23:39:24;100886.65;;;0.35;100.00
38612;BME280;24368;52.156;20.788;2023-12-14T23:44:26;100893.30;;;0.33;100.00
38612;BME280;24368;52.156;20.788;2023-12-14T23:49:29;100905.67;;;0.36;100.00
38612;BME280;24368;52.156;20.788;2023-12-14T23:54:31;100911.23;;;0.35;100.00
38612;BME280;24368;52.156;20.788;2023-12-14T23:59:32;100922.88;;;0.38;100.00
